Terminal Aerodrome Forecast
Issued by NWS Twin Cities, MN

Home | Current Version | Previous Version | Text Only | Print | Product List | Glossary On
Versions: 1 2 3 4 5 6 7 8 9 10 11 12 13 14 15 16 17
000
FTUS43 KMPX 071700
TAFEAU
TAF
KEAU 071732Z 0718/0818 25011KT P6SM FEW060 BKN100
      TEMPO 0722/0802 3SM -TSRA OVC025CB
     FM080200 27005KT P6SM -SHRA VCTS OVC040CB
     FM080600 29005KT P6SM BKN100
     FM081500 30011KT P6SM BKN030=

USA.gov is the U.S. government's official web portal to all federal, state and local government web resources and services.